Time,TemperatureF,DewpointF,PressureIn,WindDirection,WindDirectionDegrees,WindSpeedMPH,WindSpeedGustMPH,Humidity,HourlyPrecipIn,Conditions,Clouds,dailyrainin,SolarRadiationWatts/m^2,SoftwareType,DateUTC
2013-10-28 00:05:00,49.5,30.6,30.03,NW,320,0.0,1.0,48,0.00,,,0.00,0,Wunderground v.1.15,2013-10-28 07:05:00,
2013-10-28 00:10:00,49.2,30.3,30.04,West,281,0.0,0.0,48,0.00,,,0.00,0,Wunderground v.1.15,2013-10-28 07:10:00,
2013-10-28 00:19:00,49.1,30.2,30.04,WSW,252,0.0,0.0,48,0.00,,,0.00,0,Wunderground v.1.15,2013-10-28 07:19:00,
2013-10-28 00:25:00,48.9,30.6,30.04,NNW,336,0.0,1.0,49,0.00,,,0.00,0,Wunderground v.1.15,2013-10-28 07:25:00,
2013-10-28 00:35:00,49.1,30.7,30.04,WNW,293,1.0,1.0,49,0.00,,,0.00,0,Wunderground v.1.15,2013-10-28 07:35:00,
2013-10-28 00:45:00,48.9,30.1,30.04,WNW,289,0.0,1.0,48,0.00,,,0.00,0,Wunderground v.1.15,2013-10-28 07:45:00,
2013-10-28 00:55:00,48.9,30.1,30.04,NNW,327,1.0,1.0,48,0.00,,,0.00,0,Wunderground v.1.15,2013-10-28 07:55:00,
2013-10-28 01:05:00,48.8,30.5,30.05,West,271,1.0,2.0,49,0.00,,,0.00,0,Wunderground v.1.15,2013-10-28 08:05:00,
2013-10-28 01:15:00,47.9,31.1,30.05,West,266,0.0,0.0,52,0.00,,,0.00,0,Wunderground v.1.15,2013-10-28 08:15:00,
2013-10-28 01:24:00,47.1,30.8,30.05,West,266,0.0,0.0,53,0.00,,,0.00,0,Wunderground v.1.15,2013-10-28 08:24:00,
2013-10-28 01:30:00,46.8,31.0,30.05,West,266,0.0,0.0,54,0.00,,,0.00,0,Wunderground v.1.15,2013-10-28 08:30:00,
2013-10-28 01:35:00,46.7,31.4,30.05,SSW,208,0.0,0.0,55,0.00,,,0.00,0,Wunderground v.1.15,2013-10-28 08:35:00,
2013-10-28 01:45:00,46.2,31.4,30.05,SSW,208,0.0,0.0,56,0.00,,,0.00,0,Wunderground v.1.15,2013-10-28 08:45:00,
2013-10-28 01:55:00,46.1,31.3,30.05,SSW,208,0.0,0.0,56,0.00,,,0.00,0,Wunderground v.1.15,2013-10-28 08:55:00,
2013-10-28 02:05:00,46.0,31.6,30.06,SSW,208,0.0,0.0,57,0.00,,,0.00,0,Wunderground v.1.15,2013-10-28 09:05:00,
2013-10-28 02:14:00,45.7,31.3,30.06,SSW,208,0.0,0.0,57,0.00,,,0.00,0,Wunderground v.1.15,2013-10-28 09:14:00,
2013-10-28 02:19:00,45.5,31.6,30.06,SSW,208,0.0,0.0,58,0.00,,,0.00,0,Wunderground v.1.15,2013-10-28 09:19:00,
2013-10-28 02:25:00,45.4,31.0,30.06,SSW,208,0.0,0.0,57,0.00,,,0.00,0,Wunderground v.1.15,2013-10-28 09:25:00,
2013-10-28 02:34:00,44.9,31.4,30.07,SSW,208,0.0,0.0,59,0.00,,,0.00,0,Wunderground v.1.15,2013-10-28 09:34:00,
2013-10-28 02:39:00,44.8,31.3,30.06,SSW,208,0.0,0.0,59,0.00,,,0.00,0,Wunderground v.1.15,2013-10-28 09:39:00,
2013-10-28 02:45:00,44.6,31.6,30.06,SSW,208,0.0,0.0,60,0.00,,,0.00,0,Wunderground v.1.15,2013-10-28 09:45:00,
2013-10-28 02:55:00,44.5,31.5,30.05,SSW,208,0.0,0.0,60,0.00,,,0.00,0,Wunderground v.1.15,2013-10-28 09:55:00,
2013-10-28 03:05:00,44.2,32.0,30.06,SSW,203,0.0,0.0,62,0.00,,,0.00,0,Wunderground v.1.15,2013-10-28 10:05:00,
2013-10-28 03:14:00,44.2,28.6,30.06,WSW,243,0.0,0.0,54,0.00,,,0.00,0,Wunderground v.1.15,2013-10-28 10:14:00,
2013-10-28 03:20:00,44.8,30.0,30.05,SW,224,0.0,0.0,56,0.00,,,0.00,0,Wunderground v.1.15,2013-10-28 10:20:00,
2013-10-28 03:30:00,45.2,30.4,30.05,NNW,331,0.0,0.0,56,0.00,,,0.00,0,Wunderground v.1.15,2013-10-28 10:30:00,
2013-10-28 03:40:00,45.1,29.9,30.05,NNW,331,0.0,0.0,55,0.00,,,0.00,0,Wunderground v.1.15,2013-10-28 10:40:00,
2013-10-28 03:45:00,45.1,28.0,30.05,NNW,331,0.0,1.0,51,0.00,,,0.00,0,Wunderground v.1.15,2013-10-28 10:45:00,
2013-10-28 03:55:00,45.4,28.3,30.05,NNW,328,0.0,0.0,51,0.00,,,0.00,0,Wunderground v.1.15,2013-10-28 10:55:00,
2013-10-28 04:04:00,45.8,27.7,30.05,NNE,15,0.0,0.0,49,0.00,,,0.00,0,Wunderground v.1.15,2013-10-28 11:04:00,
2013-10-28 04:10:00,46.0,27.9,30.05,NNE,15,0.0,0.0,49,0.00,,,0.00,0,Wunderground v.1.15,2013-10-28 11:10:00,
2013-10-28 04:20:00,45.4,29.7,30.05,NNE,15,0.0,0.0,54,0.00,,,0.00,0,Wunderground v.1.15,2013-10-28 11:20:00,
2013-10-28 04:30:00,44.2,29.5,30.06,NNE,15,0.0,0.0,56,0.00,,,0.00,0,Wunderground v.1.15,2013-10-28 11:30:00,
2013-10-28 04:40:00,43.3,29.9,30.07,NE,38,0.0,0.0,59,0.00,,,0.00,0,Wunderground v.1.15,2013-10-28 11:40:00,
2013-10-28 04:50:00,43.1,29.7,30.07,NE,38,0.0,0.0,59,0.00,,,0.00,0,Wunderground v.1.15,2013-10-28 11:50:00,
2013-10-28 05:00:00,43.1,30.1,30.07,NE,38,0.0,0.0,60,0.00,,,0.00,0,Wunderground v.1.15,2013-10-28 12:00:00,
2013-10-28 05:10:00,42.8,29.5,30.07,NE,38,0.0,0.0,59,0.00,,,0.00,0,Wunderground v.1.15,2013-10-28 12:10:00,
2013-10-28 05:20:00,42.8,29.0,30.07,NE,38,0.0,0.0,58,0.00,,,0.00,0,Wunderground v.1.15,2013-10-28 12:20:00,
2013-10-28 05:30:00,41.8,29.7,30.08,NE,38,0.0,0.0,62,0.00,,,0.00,0,Wunderground v.1.15,2013-10-28 12:30:00,
2013-10-28 05:40:00,41.3,29.6,30.07,East,87,0.0,0.0,63,0.00,,,0.00,0,Wunderground v.1.15,2013-10-28 12:40:00,
2013-10-28 05:50:00,40.8,29.9,30.07,East,87,0.0,0.0,65,0.00,,,0.00,0,Wunderground v.1.15,2013-10-28 12:50:00,
2013-10-28 06:00:00,40.5,28.9,30.08,East,87,0.0,0.0,63,0.00,,,0.00,0,Wunderground v.1.15,2013-10-28 13:00:00,
2013-10-28 06:10:00,40.2,29.0,30.08,East,88,0.0,0.0,64,0.00,,,0.00,0,Wunderground v.1.15,2013-10-28 13:10:00,
2013-10-28 06:19:00,40.3,29.5,30.08,East,87,0.0,0.0,65,0.00,,,0.00,0,Wunderground v.1.15,2013-10-28 13:19:00,
2013-10-28 06:24:00,40.2,29.4,30.08,East,87,0.0,0.0,65,0.00,,,0.00,0,Wunderground v.1.15,2013-10-28 13:24:00,
2013-10-28 06:35:00,39.8,28.6,30.08,East,90,0.0,0.0,64,0.00,,,0.00,0,Wunderground v.1.15,2013-10-28 13:35:00,
2013-10-28 06:44:00,39.6,26.8,30.09,East,90,0.0,0.0,60,0.00,,,0.00,0,Wunderground v.1.15,2013-10-28 13:44:00,
2013-10-28 06:55:00,38.9,27.8,30.09,East,90,0.0,0.0,64,0.00,,,0.00,0,Wunderground v.1.15,2013-10-28 13:55:00,
2013-10-28 07:00:00,38.5,28.1,30.09,East,90,0.0,0.0,66,0.00,,,0.00,0,Wunderground v.1.15,2013-10-28 14:00:00,
2013-10-28 07:09:00,37.6,27.6,30.10,East,90,0.0,0.0,67,0.00,,,0.00,0,Wunderground v.1.15,2013-10-28 14:09:00,
2013-10-28 07:15:00,37.5,27.9,30.10,East,90,0.0,0.0,68,0.00,,,0.00,0,Wunderground v.1.15,2013-10-28 14:15:00,
2013-10-28 07:24:00,37.0,27.1,30.10,East,90,0.0,0.0,67,0.00,,,0.00,0,Wunderground v.1.15,2013-10-28 14:24:00,
2013-10-28 07:30:00,36.8,26.9,30.10,East,90,0.0,0.0,67,0.00,,,0.00,0,Wunderground v.1.15,2013-10-28 14:30:00,
2013-10-28 07:39:00,35.9,26.7,30.10,East,90,0.0,0.0,69,0.00,,,0.00,0,Wunderground v.1.15,2013-10-28 14:39:00,
2013-10-28 07:45:00,35.6,26.8,30.11,East,90,0.0,0.0,70,0.00,,,0.00,0,Wunderground v.1.15,2013-10-28 14:45:00,
2013-10-28 07:55:00,34.9,26.8,30.11,East,90,0.0,0.0,72,0.00,,,0.00,7,Wunderground v.1.15,2013-10-28 14:55:00,
2013-10-28 08:05:00,34.3,26.2,30.12,East,90,0.0,0.0,72,0.00,,,0.00,11,Wunderground v.1.15,2013-10-28 15:05:00,
2013-10-28 08:15:00,33.7,26.3,30.12,East,90,0.0,0.0,74,0.00,,,0.00,12,Wunderground v.1.15,2013-10-28 15:15:00,
2013-10-28 08:25:00,33.4,26.0,30.13,East,90,0.0,0.0,74,0.00,,,0.00,25,Wunderground v.1.15,2013-10-28 15:25:00,
2013-10-28 08:35:00,34.4,27.0,30.13,East,90,0.0,0.0,74,0.00,,,0.00,93,Wunderground v.1.15,2013-10-28 15:35:00,
2013-10-28 08:45:00,36.0,28.2,30.12,East,90,0.0,0.0,73,0.00,,,0.00,104,Wunderground v.1.15,2013-10-28 15:45:00,
2013-10-28 08:54:00,38.2,28.9,30.12,East,90,0.0,0.0,69,0.00,,,0.00,132,Wunderground v.1.15,2013-10-28 15:54:00,
2013-10-28 09:05:00,39.6,29.2,30.12,East,90,0.0,0.0,66,0.00,,,0.00,155,Wunderground v.1.15,2013-10-28 16:05:00,
2013-10-28 09:15:00,41.5,29.0,30.11,East,90,0.0,0.0,61,0.00,,,0.00,178,Wunderground v.1.15,2013-10-28 16:15:00,
2013-10-28 09:25:00,43.8,28.7,30.11,East,90,0.0,0.0,55,0.00,,,0.00,200,Wunderground v.1.15,2013-10-28 16:25:00,
2013-10-28 09:35:00,44.3,27.3,30.11,East,90,0.0,0.0,51,0.00,,,0.00,223,Wunderground v.1.15,2013-10-28 16:35:00,
2013-10-28 09:45:00,45.5,26.4,30.10,East,90,0.0,0.0,47,0.00,,,0.00,246,Wunderground v.1.15,2013-10-28 16:45:00,
2013-10-28 09:55:00,46.5,26.8,30.09,East,90,0.0,0.0,46,0.00,,,0.00,265,Wunderground v.1.15,2013-10-28 16:55:00,
2013-10-28 10:04:00,47.7,26.8,30.08,East,90,0.0,0.0,44,0.00,,,0.00,285,Wunderground v.1.15,2013-10-28 17:04:00,
2013-10-28 10:09:00,48.0,26.5,30.08,East,90,0.0,0.0,43,0.00,,,0.00,299,Wunderground v.1.15,2013-10-28 17:09:00,
2013-10-28 10:19:00,47.7,26.8,30.08,South,174,1.0,1.0,44,0.00,,,0.00,318,Wunderground v.1.15,2013-10-28 17:19:00,
2013-10-28 10:25:00,47.6,25.6,30.07,South,174,1.0,1.0,42,0.00,,,0.00,327,Wunderground v.1.15,2013-10-28 17:25:00,
2013-10-28 10:34:00,48.2,24.4,30.07,South,170,0.0,0.0,39,0.00,,,0.00,345,Wunderground v.1.15,2013-10-28 17:34:00,
2013-10-28 10:40:00,48.8,24.9,30.06,WSW,253,0.0,4.0,39,0.00,,,0.00,353,Wunderground v.1.15,2013-10-28 17:40:00,
2013-10-28 10:50:00,49.4,24.8,30.06,WSW,244,0.0,0.0,38,0.00,,,0.00,371,Wunderground v.1.15,2013-10-28 17:50:00,
2013-10-28 11:00:00,49.5,24.3,30.05,WSW,250,1.0,1.0,37,0.00,,,0.00,385,Wunderground v.1.15,2013-10-28 18:00:00,
2013-10-28 11:10:00,49.8,24.5,30.05,WSW,253,1.0,1.0,37,0.00,,,0.00,399,Wunderground v.1.15,2013-10-28 18:10:00,
2013-10-28 11:20:00,50.2,22.2,30.05,West,275,1.0,2.0,33,0.00,,,0.00,413,Wunderground v.1.15,2013-10-28 18:20:00,
2013-10-28 11:30:00,50.8,22.7,30.05,WSW,254,1.0,2.0,33,0.00,,,0.00,424,Wunderground v.1.15,2013-10-28 18:30:00,
2013-10-28 11:40:00,50.8,22.0,30.04,WSW,255,2.0,2.0,32,0.00,,,0.00,436,Wunderground v.1.15,2013-10-28 18:40:00,
2013-10-28 11:50:00,51.3,21.6,30.03,West,275,1.0,1.0,31,0.00,,,0.00,446,Wunderground v.1.15,2013-10-28 18:50:00,
2013-10-28 12:00:00,51.6,21.9,30.02,West,269,1.0,2.0,31,0.00,,,0.00,452,Wunderground v.1.15,2013-10-28 19:00:00,
2013-10-28 12:10:00,51.9,22.2,30.02,WSW,245,1.0,1.0,31,0.00,,,0.00,461,Wunderground v.1.15,2013-10-28 19:10:00,
2013-10-28 12:20:00,51.9,22.2,30.01,NNW,340,2.0,2.0,31,0.00,,,0.00,464,Wunderground v.1.15,2013-10-28 19:20:00,
2013-10-28 12:30:00,52.0,20.7,30.01,NNE,14,2.0,2.0,29,0.00,,,0.00,469,Wunderground v.1.15,2013-10-28 19:30:00,
2013-10-28 12:40:00,52.5,22.7,30.00,WSW,249,1.0,3.0,31,0.00,,,0.00,471,Wunderground v.1.15,2013-10-28 19:40:00,
2013-10-28 12:50:00,52.2,23.2,30.00,NNW,331,2.0,2.0,32,0.00,,,0.00,471,Wunderground v.1.15,2013-10-28 19:50:00,
2013-10-28 13:00:00,52.3,20.9,30.00,West,261,1.0,1.0,29,0.00,,,0.00,469,Wunderground v.1.15,2013-10-28 20:00:00,
2013-10-28 13:09:00,53.3,22.6,30.00,WNW,285,1.0,1.0,30,0.00,,,0.00,468,Wunderground v.1.15,2013-10-28 20:09:00,
2013-10-28 13:14:00,53.5,21.2,29.99,North,9,1.0,1.0,28,0.00,,,0.00,466,Wunderground v.1.15,2013-10-28 20:14:00,
2013-10-28 13:25:00,53.8,21.4,29.98,WNW,294,1.0,1.0,28,0.00,,,0.00,462,Wunderground v.1.15,2013-10-28 20:25:00,
2013-10-28 13:34:00,53.6,22.9,29.98,WSW,244,1.0,3.0,30,0.00,,,0.00,455,Wunderground v.1.15,2013-10-28 20:34:00,
2013-10-28 13:40:00,53.5,22.8,29.98,North,360,1.0,1.0,30,0.00,,,0.00,452,Wunderground v.1.15,2013-10-28 20:40:00,
2013-10-28 13:50:00,53.5,22.0,29.98,WSW,253,1.0,1.0,29,0.00,,,0.00,443,Wunderground v.1.15,2013-10-28 20:50:00,
2013-10-28 14:00:00,53.9,23.1,29.98,West,275,1.0,3.0,30,0.00,,,0.00,434,Wunderground v.1.15,2013-10-28 21:00:00,
2013-10-28 14:09:00,54.1,22.5,29.98,WNW,292,1.0,1.0,29,0.00,,,0.00,424,Wunderground v.1.15,2013-10-28 21:09:00,
2013-10-28 14:15:00,54.1,22.5,29.98,NW,308,1.0,1.0,29,0.00,,,0.00,417,Wunderground v.1.15,2013-10-28 21:15:00,
2013-10-28 14:25:00,53.6,23.7,29.98,West,259,2.0,2.0,31,0.00,,,0.00,404,Wunderground v.1.15,2013-10-28 21:25:00,
2013-10-28 14:35:00,54.1,22.5,29.98,West,265,1.0,1.0,29,0.00,,,0.00,390,Wunderground v.1.15,2013-10-28 21:35:00,
2013-10-28 14:45:00,53.6,23.7,29.98,NW,323,2.0,2.0,31,0.00,,,0.00,373,Wunderground v.1.15,2013-10-28 21:45:00,
2013-10-28 14:54:00,53.3,25.6,29.98,West,264,1.0,3.0,34,0.00,,,0.00,357,Wunderground v.1.15,2013-10-28 21:54:00,
2013-10-28 14:59:00,53.1,25.4,29.98,WSW,250,2.0,2.0,34,0.00,,,0.00,346,Wunderground v.1.15,2013-10-28 21:59:00,
2013-10-28 15:10:00,52.2,24.6,29.98,NNW,334,1.0,1.0,34,0.00,,,0.00,121,Wunderground v.1.15,2013-10-28 22:10:00,
2013-10-28 15:20:00,49.4,26.1,29.98,WSW,256,1.0,3.0,40,0.00,,,0.00,26,Wunderground v.1.15,2013-10-28 22:20:00,
2013-10-28 15:30:00,47.9,25.3,29.99,West,260,2.0,2.0,41,0.00,,,0.00,25,Wunderground v.1.15,2013-10-28 22:30:00,
2013-10-28 15:40:00,47.4,24.3,29.99,NW,323,1.0,1.0,40,0.00,,,0.00,25,Wunderground v.1.15,2013-10-28 22:40:00,
2013-10-28 15:50:00,47.7,23.9,29.98,WSW,256,2.0,2.0,39,0.00,,,0.00,23,Wunderground v.1.15,2013-10-28 22:50:00,
2013-10-28 16:00:00,47.9,24.1,29.98,NE,42,2.0,2.0,39,0.00,,,0.00,23,Wunderground v.1.15,2013-10-28 23:00:00,
2013-10-28 16:05:00,48.0,24.2,29.99,WSW,245,2.0,3.0,39,0.00,,,0.00,21,Wunderground v.1.15,2013-10-28 23:05:00,
2013-10-28 16:15:00,47.9,24.1,29.99,NNW,335,2.0,3.0,39,0.00,,,0.00,21,Wunderground v.1.15,2013-10-28 23:15:00,
2013-10-28 16:25:00,47.9,24.1,29.99,SW,223,2.0,7.0,39,0.00,,,0.00,19,Wunderground v.1.15,2013-10-28 23:25:00,
2013-10-28 16:34:00,47.6,24.4,29.99,NNW,333,1.0,2.0,40,0.00,,,0.00,19,Wunderground v.1.15,2013-10-28 23:34:00,
2013-10-28 16:39:00,47.3,24.8,29.99,North,355,0.0,0.0,41,0.00,,,0.00,18,Wunderground v.1.15,2013-10-28 23:39:00,
2013-10-28 16:45:00,47.1,24.0,29.99,ESE,113,1.0,1.0,40,0.00,,,0.00,18,Wunderground v.1.15,2013-10-28 23:45:00,
2013-10-28 16:55:00,47.0,23.9,29.99,West,268,2.0,7.0,40,0.00,,,0.00,16,Wunderground v.1.15,2013-10-28 23:55:00,
2013-10-28 17:05:00,47.0,24.5,30.00,WSW,254,1.0,2.0,41,0.00,,,0.00,14,Wunderground v.1.15,2013-10-29 00:05:00,
2013-10-28 17:15:00,46.4,24.5,30.01,NW,318,0.0,2.0,42,0.00,,,0.00,12,Wunderground v.1.15,2013-10-29 00:15:00,
2013-10-28 17:25:00,45.7,24.5,30.01,NNW,348,1.0,1.0,43,0.00,,,0.00,9,Wunderground v.1.15,2013-10-29 00:25:00,
2013-10-28 17:34:00,45.2,24.6,30.02,SSW,194,0.0,4.0,44,0.00,,,0.00,7,Wunderground v.1.15,2013-10-29 00:34:00,
2013-10-28 17:39:00,45.2,24.0,30.02,NW,323,1.0,1.0,43,0.00,,,0.00,5,Wunderground v.1.15,2013-10-29 00:39:00,
2013-10-28 17:50:00,45.2,24.6,30.02,NW,314,1.0,1.0,44,0.00,,,0.00,0,Wunderground v.1.15,2013-10-29 00:50:00,
2013-10-28 18:00:00,44.5,24.5,30.02,NW,314,1.0,1.0,45,0.00,,,0.00,0,Wunderground v.1.15,2013-10-29 01:00:00,
2013-10-28 18:10:00,44.1,24.1,30.03,WSW,247,1.0,1.0,45,0.00,,,0.00,0,Wunderground v.1.15,2013-10-29 01:10:00,
2013-10-28 18:20:00,43.8,24.3,30.04,WNW,301,1.0,1.0,46,0.00,,,0.00,0,Wunderground v.1.15,2013-10-29 01:20:00,
2013-10-28 18:30:00,43.5,24.1,30.04,NW,309,0.0,1.0,46,0.00,,,0.00,0,Wunderground v.1.15,2013-10-29 01:30:00,
2013-10-28 18:39:00,43.3,23.9,30.05,WSW,246,1.0,1.0,46,0.00,,,0.00,0,Wunderground v.1.15,2013-10-29 01:39:00,
2013-10-28 18:44:00,43.3,23.9,30.05,NW,318,1.0,1.0,46,0.00,,,0.00,0,Wunderground v.1.15,2013-10-29 01:44:00,
2013-10-28 18:50:00,43.2,23.8,30.05,NNW,340,1.0,1.0,46,0.00,,,0.00,0,Wunderground v.1.15,2013-10-29 01:50:00,
2013-10-28 19:00:00,43.2,24.3,30.05,NW,321,0.0,3.0,47,0.00,,,0.00,0,Wunderground v.1.15,2013-10-29 02:00:00,
2013-10-28 19:10:00,42.8,23.9,30.06,NW,317,1.0,1.0,47,0.00,,,0.00,0,Wunderground v.1.15,2013-10-29 02:10:00,
2013-10-28 19:19:00,42.9,24.0,30.07,NNW,333,1.0,3.0,47,0.00,,,0.00,0,Wunderground v.1.15,2013-10-29 02:19:00,
2013-10-28 19:24:00,43.1,23.7,30.07,NW,324,1.0,4.0,46,0.00,,,0.00,0,Wunderground v.1.15,2013-10-29 02:24:00,
2013-10-28 19:34:00,43.2,23.8,30.07,West,267,1.0,1.0,46,0.00,,,0.00,0,Wunderground v.1.15,2013-10-29 02:34:00,
2013-10-28 19:40:00,43.1,24.2,30.07,WSW,243,1.0,3.0,47,0.00,,,0.00,0,Wunderground v.1.15,2013-10-29 02:40:00,
2013-10-28 19:49:00,42.8,23.9,30.07,WSW,256,1.0,3.0,47,0.00,,,0.00,0,Wunderground v.1.15,2013-10-29 02:49:00,
2013-10-28 19:54:00,42.6,23.8,30.07,WNW,294,1.0,3.0,47,0.00,,,0.00,0,Wunderground v.1.15,2013-10-29 02:54:00,
2013-10-28 20:04:00,42.5,23.7,30.06,North,360,1.0,1.0,47,0.00,,,0.00,0,Wunderground v.1.15,2013-10-29 03:04:00,
2013-10-28 20:14:00,42.3,24.0,30.06,NW,307,1.0,1.0,48,0.00,,,0.00,0,Wunderground v.1.15,2013-10-29 03:14:00,
2013-10-28 20:20:00,42.1,23.8,30.06,NNW,337,1.0,1.0,48,0.00,,,0.00,0,Wunderground v.1.15,2013-10-29 03:20:00,
2013-10-28 20:30:00,41.6,23.8,30.06,NNW,348,1.0,1.0,49,0.00,,,0.00,0,Wunderground v.1.15,2013-10-29 03:30:00,
2013-10-28 20:40:00,41.2,23.9,30.06,North,349,1.0,1.0,50,0.00,,,0.00,0,Wunderground v.1.15,2013-10-29 03:40:00,
2013-10-28 20:50:00,41.1,23.9,30.07,North,355,0.0,1.0,50,0.00,,,0.00,0,Wunderground v.1.15,2013-10-29 03:50:00,
2013-10-28 21:00:00,40.5,23.8,30.07,WNW,295,0.0,0.0,51,0.00,,,0.00,0,Wunderground v.1.15,2013-10-29 04:00:00,
2013-10-28 21:04:00,40.2,24.0,30.06,WNW,296,0.0,0.0,52,0.00,,,0.00,0,Wunderground v.1.15,2013-10-29 04:04:00,
2013-10-28 21:10:00,39.8,24.0,30.05,WNW,301,0.0,1.0,53,0.00,,,0.00,0,Wunderground v.1.15,2013-10-29 04:10:00,
2013-10-28 21:20:00,39.6,23.9,30.06,NW,311,0.0,0.0,53,0.00,,,0.00,0,Wunderground v.1.15,2013-10-29 04:20:00,
2013-10-28 21:29:00,40.1,23.4,30.06,NNW,328,1.0,2.0,51,0.00,,,0.00,0,Wunderground v.1.15,2013-10-29 04:29:00,
2013-10-28 21:35:00,40.5,23.3,30.05,West,261,1.0,2.0,50,0.00,,,0.00,0,Wunderground v.1.15,2013-10-29 04:35:00,
2013-10-28 21:44:00,41.1,23.4,30.05,WSW,245,1.0,1.0,49,0.00,,,0.00,0,Wunderground v.1.15,2013-10-29 04:44:00,
2013-10-28 21:55:00,41.1,23.4,30.05,West,262,1.0,1.0,49,0.00,,,0.00,0,Wunderground v.1.15,2013-10-29 04:55:00,
2013-10-28 22:04:00,40.6,23.4,30.05,NW,321,0.0,1.0,50,0.00,,,0.00,0,Wunderground v.1.15,2013-10-29 05:04:00,
2013-10-28 22:15:00,40.1,23.4,30.04,NW,326,0.0,0.0,51,0.00,,,0.00,0,Wunderground v.1.15,2013-10-29 05:15:00,
2013-10-28 22:25:00,39.5,23.3,30.05,North,355,0.0,1.0,52,0.00,,,0.00,0,Wunderground v.1.15,2013-10-29 05:25:00,
2013-10-28 22:35:00,38.9,23.7,30.05,NNE,23,0.0,1.0,54,0.00,,,0.00,0,Wunderground v.1.15,2013-10-29 05:35:00,
2013-10-28 22:45:00,38.0,23.3,30.05,ENE,74,0.0,0.0,55,0.00,,,0.00,0,Wunderground v.1.15,2013-10-29 05:45:00,
2013-10-28 22:49:00,38.0,23.3,30.05,NW,308,1.0,1.0,55,0.00,,,0.00,0,Wunderground v.1.15,2013-10-29 05:49:00,
2013-10-28 22:55:00,38.3,22.6,30.05,SW,217,1.0,2.0,53,0.00,,,0.00,0,Wunderground v.1.15,2013-10-29 05:55:00,
2013-10-28 23:05:00,39.8,22.7,30.04,NW,325,1.0,2.0,50,0.00,,,0.00,0,Wunderground v.1.15,2013-10-29 06:05:00,
2013-10-28 23:15:00,40.5,22.3,30.04,North,10,2.0,2.0,48,0.00,,,0.00,0,Wunderground v.1.15,2013-10-29 06:15:00,
2013-10-28 23:24:00,40.9,22.7,30.04,WNW,295,2.0,2.0,48,0.00,,,0.00,0,Wunderground v.1.15,2013-10-29 06:24:00,
2013-10-28 23:35:00,40.8,22.6,30.03,NNW,343,1.0,7.0,48,0.00,,,0.00,0,Wunderground v.1.15,2013-10-29 06:35:00,
2013-10-28 23:45:00,40.9,22.7,30.03,WNW,297,1.0,2.0,48,0.00,,,0.00,0,Wunderground v.1.15,2013-10-29 06:45:00,
2013-10-28 23:55:00,41.1,22.4,30.03,SW,216,2.0,10.0,47,0.00,,,0.00,0,Wunderground v.1.15,2013-10-29 06:55:00,